Time;durP1;ratioP1;P1;durP2;ratioP2;P2;SDS_P1;SDS_P2;PMS_P1;PMS_P2;Temp;Humidity;BMP_temperature;BMP_pressure;BME280_temperature;BME280_humidity;BME280_pressure;Samples;Min_cycle;Max_cycle;Signal;HPM_P1;HPM_P2
2023/01/09 00:02:19;;;;;;;6.00;2.90;;;;;;;;;;5013456;28;20425;-42
2023/01/09 00:04:45;;;;;;;2.63;2.37;;;;;;;;;;5009216;28;20520;-43
2023/01/09 00:07:11;;;;;;;2.60;2.03;;;;;;;;;;5012712;28;20447;-43
2023/01/09 00:09:37;;;;;;;1.90;1.80;;;;;;;;;;5005740;28;20441;-43
2023/01/09 00:12:03;;;;;;;2.97;1.97;;;;;;;;;;5012199;28;20805;-43
2023/01/09 00:14:29;;;;;;;2.80;1.70;;;;;;;;;;5012938;28;20451;-43
2023/01/09 00:16:55;;;;;;;2.13;1.90;;;;;;;;;;5010206;28;20965;-43
2023/01/09 00:19:21;;;;;;;1.50;1.40;;;;;;;;;;5012947;28;20842;-43
2023/01/09 00:21:47;;;;;;;2.03;1.80;;;;;;;;;;5007235;28;20423;-43
2023/01/09 00:24:13;;;;;;;3.00;1.80;;;;;;;;;;5013145;28;20435;-43
2023/01/09 00:26:40;;;;;;;4.80;1.90;;;;;;;;;;5013290;28;20868;-43
2023/01/09 00:29:06;;;;;;;5.73;2.10;;;;;;;;;;5010281;28;20438;-43
2023/01/09 00:31:32;;;;;;;1.80;1.70;;;;;;;;;;5012968;28;20896;-43
2023/01/09 00:33:58;;;;;;;2.90;1.60;;;;;;;;;;5012960;28;20848;-43
2023/01/09 00:36:24;;;;;;;1.97;1.87;;;;;;;;;;5007141;28;20907;-43
2023/01/09 00:38:50;;;;;;;1.90;1.70;;;;;;;;;;5012479;28;20472;-44
2023/01/09 00:41:19;;;;;;;1.53;1.43;;;;;;;;;;5012679;28;20405;-43
2023/01/09 00:43:48;;;;;;;1.60;1.50;;;;;;;;;;5010396;28;20417;-43
2023/01/09 00:46:15;;;;;;;1.50;1.40;;;;;;;;;;5012797;28;20464;-43
2023/01/09 00:48:42;;;;;;;1.30;1.13;;;;;;;;;;5007129;28;21011;-43
2023/01/09 00:51:08;;;;;;;2.20;1.50;;;;;;;;;;5009823;28;20420;-43
2023/01/09 00:53:35;;;;;;;2.90;1.77;;;;;;;;;;5011368;28;20500;-43
2023/01/09 00:56:04;;;;;;;1.50;1.40;;;;;;;;;;5011768;28;20421;-44
2023/01/09 00:58:31;;;;;;;1.40;1.30;;;;;;;;;;5012095;28;20509;-44
2023/01/09 01:00:57;;;;;;;1.63;1.50;;;;;;;;;;5008483;28;20413;-44
2023/01/09 01:03:23;;;;;;;1.47;1.37;;;;;;;;;;5006576;28;20423;-43
2023/01/09 01:08:34;;;;;;;2.80;1.30;;;;;;;;;;5011469;28;20434;-44
2023/01/09 01:11:04;;;;;;;1.40;1.30;;;;;;;;;;5012289;28;20181;-44
2023/01/09 01:13:30;;;;;;;1.50;1.40;;;;;;;;;;5012262;28;20177;-44
2023/01/09 01:15:56;;;;;;;1.63;1.50;;;;;;;;;;5012297;28;20888;-44
2023/01/09 01:18:22;;;;;;;1.60;1.50;;;;;;;;;;5011587;28;20458;-45
2023/01/09 01:20:50;;;;;;;1.20;1.20;;;;;;;;;;5005000;28;20422;-44
2023/01/09 01:23:16;;;;;;;1.70;1.60;;;;;;;;;;5011545;28;20466;-44
2023/01/09 01:25:42;;;;;;;1.70;1.60;;;;;;;;;;5012193;28;20410;-43
2023/01/09 01:28:09;;;;;;;1.40;1.30;;;;;;;;;;5004580;28;20438;-43
2023/01/09 01:30:39;;;;;;;1.50;1.40;;;;;;;;;;5007446;28;20408;-44
2023/01/09 01:33:05;;;;;;;1.60;1.50;;;;;;;;;;5011000;28;20222;-44
2023/01/09 01:35:31;;;;;;;1.73;1.63;;;;;;;;;;5011561;28;20924;-44
2023/01/09 01:37:57;;;;;;;1.50;1.40;;;;;;;;;;5010878;28;20556;-44
2023/01/09 01:40:23;;;;;;;1.70;1.60;;;;;;;;;;5011930;28;20499;-44
2023/01/09 01:42:50;;;;;;;1.60;1.50;;;;;;;;;;5011894;28;20407;-43
2023/01/09 01:45:18;;;;;;;1.60;1.50;;;;;;;;;;5006323;28;20440;-44
2023/01/09 01:47:50;;;;;;;1.55;1.45;;;;;;;;;;5011462;28;20503;-44
2023/01/09 01:50:23;;;;;;;1.57;1.47;;;;;;;;;;5011769;28;20235;-44
2023/01/09 01:52:53;;;;;;;1.52;1.42;;;;;;;;;;5009617;28;20843;-44
2023/01/09 01:55:19;;;;;;;1.50;1.40;;;;;;;;;;5011773;28;20642;-44
2023/01/09 01:57:48;;;;;;;1.20;1.10;;;;;;;;;;5011155;28;20459;-44
2023/01/09 02:00:14;;;;;;;1.60;1.50;;;;;;;;;;5011584;28;20748;-44
2023/01/09 02:02:42;;;;;;;1.27;1.20;;;;;;;;;;5004023;28;20451;-44
2023/01/09 02:05:08;;;;;;;1.60;1.50;;;;;;;;;;5010922;28;20416;-44
2023/01/09 02:07:34;;;;;;;1.50;1.40;;;;;;;;;;5009546;28;20475;-44
2023/01/09 02:10:00;;;;;;;1.63;1.53;;;;;;;;;;5011440;28;20216;-44
2023/01/09 02:12:27;;;;;;;1.30;1.20;;;;;;;;;;5008601;28;20413;-44
2023/01/09 02:14:59;;;;;;;1.40;1.30;;;;;;;;;;5009621;28;20235;-44
2023/01/09 02:17:36;;;;;;;1.43;1.33;;;;;;;;;;5009360;28;20458;-44
2023/01/09 02:20:02;;;;;;;1.20;1.20;;;;;;;;;;5003359;28;20440;-44
2023/01/09 02:22:36;;;;;;;2.70;1.20;;;;;;;;;;5015336;28;20972;-43
2023/01/09 02:25:05;;;;;;;3.00;1.10;;;;;;;;;;5012819;28;20398;-44
2023/01/09 02:27:43;;;;;;;1.57;1.47;;;;;;;;;;5015227;28;20419;-44
2023/01/09 02:30:25;;;;;;;1.40;1.30;;;;;;;;;;5015335;28;20425;-44
2023/01/09 02:32:57;;;;;;;1.50;1.40;;;;;;;;;;5012860;28;20418;-44
2023/01/09 02:35:59;;;;;;;1.33;1.10;;;;;;;;;;5010276;28;20416;-44
2023/01/09 02:38:43;;;;;;;3.17;1.17;;;;;;;;;;4932697;29;20473;-44
2023/01/09 02:41:09;;;;;;;2.20;1.30;;;;;;;;;;5001225;28;20409;-44
2023/01/09 02:43:37;;;;;;;1.10;1.00;;;;;;;;;;5014888;28;20757;-43
2023/01/09 02:46:04;;;;;;;1.30;1.20;;;;;;;;;;5003754;28;20467;-44
2023/01/09 02:48:30;;;;;;;1.10;1.10;;;;;;;;;;5009907;28;20432;-43
2023/01/09 02:51:15;;;;;;;2.20;1.10;;;;;;;;;;5013531;28;20657;-44
2023/01/09 02:53:41;;;;;;;1.30;1.20;;;;;;;;;;5007277;28;20828;-44
2023/01/09 02:56:19;;;;;;;3.03;1.60;;;;;;;;;;5012982;28;20411;-44
2023/01/09 02:58:46;;;;;;;3.33;1.50;;;;;;;;;;5014241;28;20502;-44
2023/01/09 03:01:26;;;;;;;1.50;1.40;;;;;;;;;;5014743;28;20463;-44
2023/01/09 03:03:55;;;;;;;2.75;1.85;;;;;;;;;;5014694;28;20183;-44
2023/01/09 03:06:39;;;;;;;1.63;1.45;;;;;;;;;;5000304;28;20195;-44
2023/01/09 03:09:12;;;;;;;1.60;1.50;;;;;;;;;;5010679;28;20254;-43
2023/01/09 03:11:41;;;;;;;1.90;1.35;;;;;;;;;;5013245;28;20181;-44
2023/01/09 03:14:17;;;;;;;2.22;1.33;;;;;;;;;;5014311;28;20231;-44
2023/01/09 03:16:46;;;;;;;1.50;1.40;;;;;;;;;;5014468;28;20180;-44
2023/01/09 03:19:15;;;;;;;3.73;1.70;;;;;;;;;;5003586;28;20220;-43
2023/01/09 03:21:42;;;;;;;2.45;1.85;;;;;;;;;;5014328;28;20776;-43
2023/01/09 03:24:08;;;;;;;2.37;2.17;;;;;;;;;;5014247;28;20205;-43
2023/01/09 03:26:34;;;;;;;2.37;2.03;;;;;;;;;;5013993;28;20455;-43
2023/01/09 03:29:00;;;;;;;2.40;2.20;;;;;;;;;;5013811;28;20442;-44
2023/01/09 03:31:26;;;;;;;5.37;2.23;;;;;;;;;;5009565;28;20184;-44
2023/01/09 03:33:53;;;;;;;2.43;2.23;;;;;;;;;;5014257;28;20450;-44
2023/01/09 03:36:20;;;;;;;2.10;1.90;;;;;;;;;;5006499;28;20411;-44
2023/01/09 03:38:46;;;;;;;2.42;2.22;;;;;;;;;;5012299;28;20467;-44
2023/01/09 03:41:12;;;;;;;3.73;2.37;;;;;;;;;;5013940;28;20587;-44
2023/01/09 03:43:38;;;;;;;2.10;2.00;;;;;;;;;;5010471;28;20503;-43
2023/01/09 03:46:04;;;;;;;2.40;2.30;;;;;;;;;;5013015;28;20173;-43
2023/01/09 03:48:30;;;;;;;2.97;2.70;;;;;;;;;;5013569;28;20762;-44
2023/01/09 03:50:56;;;;;;;6.53;3.00;;;;;;;;;;5006292;28;20431;-44
2023/01/09 03:53:24;;;;;;;3.03;2.83;;;;;;;;;;5012769;28;20424;-43
2023/01/09 03:55:51;;;;;;;3.37;3.17;;;;;;;;;;5013671;28;20420;-44
2023/01/09 03:58:18;;;;;;;4.17;3.27;;;;;;;;;;5013118;28;20477;-44
2023/01/09 04:00:45;;;;;;;4.70;3.03;;;;;;;;;;5007488;28;20468;-43
2023/01/09 04:03:11;;;;;;;3.40;3.10;;;;;;;;;;5013591;28;20409;-44
2023/01/09 04:05:38;;;;;;;2.58;2.38;;;;;;;;;;5013839;28;20416;-44
2023/01/09 04:08:04;;;;;;;5.60;2.50;;;;;;;;;;5013080;28;20258;-44
2023/01/09 04:10:30;;;;;;;2.50;2.30;;;;;;;;;;5010978;28;20636;-44
2023/01/09 04:12:56;;;;;;;2.63;2.50;;;;;;;;;;5013360;28;20776;-44
2023/01/09 04:15:22;;;;;;;2.47;2.07;;;;;;;;;;5007427;28;20425;-44
2023/01/09 04:17:48;;;;;;;3.95;2.63;;;;;;;;;;5012661;28;20579;-44
2023/01/09 04:20:14;;;;;;;3.40;2.90;;;;;;;;;;5013243;28;20181;-44
2023/01/09 04:22:40;;;;;;;2.50;2.30;;;;;;;;;;5011342;28;20188;-43
2023/01/09 04:25:07;;;;;;;2.53;2.23;;;;;;;;;;5012852;28;20821;-44
2023/01/09 04:27:33;;;;;;;4.57;2.20;;;;;;;;;;5012773;28;20443;-43
2023/01/09 04:29:59;;;;;;;2.70;2.27;;;;;;;;;;5006964;28;20446;-44
2023/01/09 04:32:26;;;;;;;6.40;2.30;;;;;;;;;;5013088;28;20415;-44
2023/01/09 04:34:52;;;;;;;5.90;2.80;;;;;;;;;;5012667;28;20787;-44
2023/01/09 04:37:18;;;;;;;7.87;2.13;;;;;;;;;;5012660;28;20496;-44
2023/01/09 04:39:44;;;;;;;4.77;2.57;;;;;;;;;;5011969;28;20467;-44
2023/01/09 04:42:11;;;;;;;2.40;2.20;;;;;;;;;;5009743;28;20500;-43
2023/01/09 04:44:37;;;;;;;5.75;1.90;;;;;;;;;;5012629;28;20421;-44
2023/01/09 04:47:03;;;;;;;3.45;2.55;;;;;;;;;;5007524;28;20285;-44
2023/01/09 04:49:29;;;;;;;3.53;2.05;;;;;;;;;;5012488;28;20196;-44
2023/01/09 04:51:55;;;;;;;2.07;1.97;;;;;;;;;;5012648;28;20572;-44
2023/01/09 04:54:21;;;;;;;3.47;2.80;;;;;;;;;;5012625;28;20430;-44
2023/01/09 04:56:47;;;;;;;2.97;2.77;;;;;;;;;;5012263;28;20436;-44
2023/01/09 04:59:13;;;;;;;8.55;2.58;;;;;;;;;;5008518;28;20505;-44
2023/01/09 05:01:39;;;;;;;3.30;2.40;;;;;;;;;;5012539;28;20633;-43
2023/01/09 05:04:05;;;;;;;6.40;2.80;;;;;;;;;;5011849;28;20463;-44
2023/01/09 05:06:32;;;;;;;16.17;2.90;;;;;;;;;;5012225;28;20411;-43
2023/01/09 05:08:59;;;;;;;4.50;2.47;;;;;;;;;;5011872;28;20192;-44
2023/01/09 05:11:25;;;;;;;5.47;2.63;;;;;;;;;;5011384;28;20204;-44
2023/01/09 05:13:51;;;;;;;5.30;2.67;;;;;;;;;;5009898;28;20180;-44
2023/01/09 05:16:17;;;;;;;2.10;2.00;;;;;;;;;;5012360;28;20179;-44
2023/01/09 05:18:43;;;;;;;5.33;2.27;;;;;;;;;;5004981;28;20208;-44
2023/01/09 05:21:09;;;;;;;2.67;2.47;;;;;;;;;;5011968;28;20410;-44
2023/01/09 05:23:35;;;;;;;9.57;2.33;;;;;;;;;;5012017;28;20411;-44
2023/01/09 05:26:03;;;;;;;2.58;2.13;;;;;;;;;;5008534;28;20177;-44
2023/01/09 05:28:29;;;;;;;5.70;2.05;;;;;;;;;;5011510;28;20223;-43
2023/01/09 05:30:55;;;;;;;3.45;2.05;;;;;;;;;;5011912;28;20640;-44
2023/01/09 05:33:21;;;;;;;2.03;1.90;;;;;;;;;;5005624;28;20187;-44
2023/01/09 05:35:47;;;;;;;2.92;2.10;;;;;;;;;;5011813;28;20419;-44
2023/01/09 05:38:13;;;;;;;4.15;2.45;;;;;;;;;;5011585;28;20207;-44
2023/01/09 05:40:39;;;;;;;2.07;1.90;;;;;;;;;;5008116;28;20176;-44
2023/01/09 05:43:05;;;;;;;3.53;1.73;;;;;;;;;;5011820;28;20487;-43
2023/01/09 05:45:31;;;;;;;3.83;2.03;;;;;;;;;;5007442;28;20467;-44
2023/01/09 05:47:57;;;;;;;4.30;2.33;;;;;;;;;;5009843;28;20410;-44
2023/01/09 05:50:23;;;;;;;4.83;1.90;;;;;;;;;;5011891;28;20427;-43
2023/01/09 05:52:48;;;;;;;3.55;1.58;;;;;;;;;;5011687;28;20429;-43
2023/01/09 05:55:15;;;;;;;4.50;1.93;;;;;;;;;;5008377;28;20180;-45
2023/01/09 05:57:40;;;;;;;3.00;1.30;;;;;;;;;;5006434;28;20468;-44
2023/01/09 06:00:07;;;;;;;4.90;1.67;;;;;;;;;;5011671;28;20183;-44
2023/01/09 06:02:33;;;;;;;4.57;1.53;;;;;;;;;;5011787;28;20415;-44
2023/01/09 06:04:59;;;;;;;4.43;1.50;;;;;;;;;;5010065;28;20409;-43
2023/01/09 06:07:25;;;;;;;6.03;1.90;;;;;;;;;;5011585;28;20775;-43
2023/01/09 06:09:51;;;;;;;2.67;1.63;;;;;;;;;;5011544;28;20424;-44
2023/01/09 06:12:16;;;;;;;2.90;1.47;;;;;;;;;;5010411;28;20422;-43
2023/01/09 06:14:42;;;;;;;3.60;1.50;;;;;;;;;;5011702;28;20433;-44
2023/01/09 06:17:11;;;;;;;2.70;1.93;;;;;;;;;;5010651;28;20508;-43
2023/01/09 06:19:37;;;;;;;1.50;1.20;;;;;;;;;;5009307;28;20554;-44
2023/01/09 06:22:03;;;;;;;4.07;1.63;;;;;;;;;;5010831;28;20272;-44
2023/01/09 06:24:29;;;;;;;2.23;1.67;;;;;;;;;;5008164;28;21144;-43
2023/01/09 06:26:55;;;;;;;4.33;1.77;;;;;;;;;;5009326;28;20407;-43
2023/01/09 06:29:21;;;;;;;4.80;1.70;;;;;;;;;;5010667;28;20815;-43
2023/01/09 06:31:47;;;;;;;4.77;1.37;;;;;;;;;;5002769;28;20418;-44
2023/01/09 06:34:13;;;;;;;4.73;1.57;;;;;;;;;;5009182;28;20495;-44
2023/01/09 06:36:39;;;;;;;5.77;1.53;;;;;;;;;;5010886;28;20415;-44
2023/01/09 06:39:05;;;;;;;1.37;1.27;;;;;;;;;;5005318;28;20470;-44
2023/01/09 06:41:31;;;;;;;8.73;1.57;;;;;;;;;;5010834;28;20419;-44
2023/01/09 06:43:56;;;;;;;1.77;1.63;;;;;;;;;;5009047;28;20960;-44
2023/01/09 06:46:23;;;;;;;5.97;2.00;;;;;;;;;;5004618;28;20925;-43
2023/01/09 06:48:48;;;;;;;1.93;1.77;;;;;;;;;;5008934;28;20431;-43
2023/01/09 06:51:14;;;;;;;5.37;1.80;;;;;;;;;;5010587;28;20438;-44
2023/01/09 06:53:40;;;;;;;4.00;2.00;;;;;;;;;;5005947;28;20424;-43
2023/01/09 06:56:09;;;;;;;4.17;1.70;;;;;;;;;;5004792;28;20411;-43
2023/01/09 06:58:36;;;;;;;3.63;1.70;;;;;;;;;;5010906;28;20998;-44
2023/01/09 07:01:02;;;;;;;6.07;2.73;;;;;;;;;;5011248;28;20259;-43
2023/01/09 07:03:28;;;;;;;2.83;1.73;;;;;;;;;;5013747;28;20404;-43
2023/01/09 07:05:55;;;;;;;17.13;2.37;;;;;;;;;;5012845;28;20752;-44
2023/01/09 07:08:21;;;;;;;3.80;2.30;;;;;;;;;;5014361;28;20455;-44
2023/01/09 07:10:47;;;;;;;3.50;1.60;;;;;;;;;;5008249;28;20263;-43
2023/01/09 07:13:13;;;;;;;3.37;1.93;;;;;;;;;;5014683;28;20425;-43
2023/01/09 07:15:39;;;;;;;2.05;1.70;;;;;;;;;;5014669;28;20415;-43
2023/01/09 07:18:04;;;;;;;2.33;1.53;;;;;;;;;;5011205;28;20211;-43
2023/01/09 07:20:30;;;;;;;1.73;1.63;;;;;;;;;;5014467;28;20798;-43
2023/01/09 07:22:56;;;;;;;2.40;1.93;;;;;;;;;;5014384;28;20498;-44
2023/01/09 07:25:22;;;;;;;5.27;1.80;;;;;;;;;;5008197;28;20407;-43
2023/01/09 07:27:48;;;;;;;10.77;1.70;;;;;;;;;;5006113;28;20420;-44
2023/01/09 07:30:14;;;;;;;3.50;1.90;;;;;;;;;;5013091;28;20426;-43
2023/01/09 07:32:41;;;;;;;3.10;1.43;;;;;;;;;;5014224;28;20423;-44
2023/01/09 07:35:07;;;;;;;5.55;1.60;;;;;;;;;;5009542;28;20404;-43
2023/01/09 07:37:33;;;;;;;8.00;1.60;;;;;;;;;;5013760;28;20599;-44
2023/01/09 07:39:59;;;;;;;2.53;1.80;;;;;;;;;;5012078;28;20419;-44
2023/01/09 07:42:25;;;;;;;3.72;1.40;;;;;;;;;;5008476;28;20408;-44
2023/01/09 07:44:51;;;;;;;5.13;2.70;;;;;;;;;;5013977;28;20195;-44
2023/01/09 07:47:17;;;;;;;5.90;1.63;;;;;;;;;;5010841;28;20419;-44
2023/01/09 07:49:43;;;;;;;3.13;1.53;;;;;;;;;;5013699;28;20443;-43
2023/01/09 07:52:09;;;;;;;5.10;1.90;;;;;;;;;;4999541;28;20432;-41
2023/01/09 07:54:35;;;;;;;2.63;1.47;;;;;;;;;;5013999;28;20444;-41
2023/01/09 07:57:01;;;;;;;3.25;1.58;;;;;;;;;;5012420;28;20839;-46
2023/01/09 07:59:28;;;;;;;3.60;1.63;;;;;;;;;;5013569;28;20193;-42
2023/01/09 08:01:54;;;;;;;3.00;1.75;;;;;;;;;;5013630;28;20263;-42
2023/01/09 08:04:20;;;;;;;5.32;2.00;;;;;;;;;;5007437;28;20185;-42
2023/01/09 08:06:46;;;;;;;2.30;1.40;;;;;;;;;;5011024;28;20168;-42
2023/01/09 08:09:13;;;;;;;5.47;1.87;;;;;;;;;;5013187;28;20856;-41
2023/01/09 08:11:39;;;;;;;4.70;2.23;;;;;;;;;;5010853;28;20802;-43
2023/01/09 08:14:05;;;;;;;3.63;2.27;;;;;;;;;;5012431;28;20419;-41
2023/01/09 08:16:31;;;;;;;1.73;1.45;;;;;;;;;;5013325;28;20978;-42
2023/01/09 08:18:57;;;;;;;3.00;2.07;;;;;;;;;;5009650;28;20290;-42
2023/01/09 08:21:23;;;;;;;3.38;1.85;;;;;;;;;;5010017;28;20484;-41
2023/01/09 08:23:49;;;;;;;2.70;1.47;;;;;;;;;;5010406;28;20176;-42
2023/01/09 08:26:15;;;;;;;7.47;1.93;;;;;;;;;;5006161;28;20418;-42
2023/01/09 08:28:41;;;;;;;1.90;1.70;;;;;;;;;;5011843;28;20446;-42
2023/01/09 08:31:07;;;;;;;3.03;1.40;;;;;;;;;;5013107;28;20264;-42
2023/01/09 08:33:33;;;;;;;2.22;1.60;;;;;;;;;;5008851;28;20513;-42
2023/01/09 08:35:59;;;;;;;1.40;1.30;;;;;;;;;;5013021;28;20719;-42
2023/01/09 08:38:25;;;;;;;5.53;1.80;;;;;;;;;;5007714;28;20288;-42
2023/01/09 08:40:51;;;;;;;2.23;1.50;;;;;;;;;;5009615;28;20406;-41
2023/01/09 08:48:47;;;;;;;2.00;1.90;;;;;;;;;;5009722;28;20207;-42
2023/01/09 08:51:13;;;;;;;5.35;2.17;;;;;;;;;;5007119;28;20477;-42
2023/01/09 08:53:39;;;;;;;5.05;2.17;;;;;;;;;;5012727;28;20267;-42
2023/01/09 08:56:05;;;;;;;2.47;2.00;;;;;;;;;;5011847;28;20235;-41
2023/01/09 08:58:32;;;;;;;3.97;2.10;;;;;;;;;;5012187;28;20219;-42
2023/01/09 09:00:58;;;;;;;5.25;1.67;;;;;;;;;;5008401;28;20204;-42
2023/01/09 09:03:24;;;;;;;11.40;1.90;;;;;;;;;;5012718;28;20184;-42
2023/01/09 09:05:50;;;;;;;2.10;1.73;;;;;;;;;;5012575;28;20177;-42
2023/01/09 09:08:16;;;;;;;3.67;2.00;;;;;;;;;;5005220;28;20424;-42
2023/01/09 09:10:42;;;;;;;5.27;2.30;;;;;;;;;;5012482;28;20786;-42
2023/01/09 09:13:08;;;;;;;4.30;1.70;;;;;;;;;;5012233;28;20486;-42
2023/01/09 09:15:36;;;;;;;2.43;1.80;;;;;;;;;;5008994;28;20415;-42
2023/01/09 09:18:03;;;;;;;2.50;2.00;;;;;;;;;;5011996;28;20478;-43
2023/01/09 09:20:34;;;;;;;3.58;1.55;;;;;;;;;;5007195;28;20181;-42
2023/01/09 09:23:00;;;;;;;7.25;2.20;;;;;;;;;;5010414;28;20559;-41
2023/01/09 09:25:27;;;;;;;2.05;1.80;;;;;;;;;;5012065;28;20628;-42
2023/01/09 09:27:54;;;;;;;2.80;1.77;;;;;;;;;;5011736;28;20188;-42
2023/01/09 09:30:20;;;;;;;5.63;1.95;;;;;;;;;;5006210;28;20297;-41
2023/01/09 09:32:47;;;;;;;2.08;1.80;;;;;;;;;;5012119;28;20192;-42
2023/01/09 09:35:13;;;;;;;8.32;2.08;;;;;;;;;;5012161;28;20559;-42
2023/01/09 09:37:39;;;;;;;2.47;1.40;;;;;;;;;;5009699;28;20196;-43
2023/01/09 09:40:06;;;;;;;3.33;2.10;;;;;;;;;;5011636;28;20256;-43
2023/01/09 09:45:36;;;;;;;1.90;1.70;;;;;;;;;;5012590;28;20478;-42
2023/01/09 09:48:20;;;;;;;5.50;2.05;;;;;;;;;;5004114;28;20208;-43
2023/01/09 09:51:01;;;;;;;2.00;1.33;;;;;;;;;;5010526;28;20730;-42
2023/01/09 09:53:27;;;;;;;2.42;1.55;;;;;;;;;;5012132;28;20183;-42
2023/01/09 09:55:53;;;;;;;2.07;1.87;;;;;;;;;;5009464;28;20216;-42
2023/01/09 09:58:36;;;;;;;5.95;1.92;;;;;;;;;;5006111;28;20502;-42
2023/01/09 10:01:02;;;;;;;2.65;2.10;;;;;;;;;;5011766;28;20180;-42
2023/01/09 10:03:35;;;;;;;3.25;2.45;;;;;;;;;;5012235;28;20189;-42
2023/01/09 10:06:04;;;;;;;4.95;1.95;;;;;;;;;;5009238;28;20581;-42
2023/01/09 10:08:36;;;;;;;1.60;1.50;;;;;;;;;;5011761;28;20204;-42
2023/01/09 10:11:03;;;;;;;3.05;2.35;;;;;;;;;;5012076;28;20404;-42
2023/01/09 10:16:25;;;;;;;7.80;3.25;;;;;;;;;;5005173;28;20246;-43
2023/01/09 10:18:57;;;;;;;3.87;2.27;;;;;;;;;;5009915;28;20238;-42
2023/01/09 10:21:23;;;;;;;3.00;1.88;;;;;;;;;;5011864;28;20863;-42
2023/01/09 10:23:55;;;;;;;3.60;1.83;;;;;;;;;;5012038;28;20185;-42
2023/01/09 10:26:25;;;;;;;3.10;1.90;;;;;;;;;;5011826;28;20570;-42
2023/01/09 10:29:10;;;;;;;4.10;2.37;;;;;;;;;;5011731;28;20486;-41
2023/01/09 10:31:36;;;;;;;6.60;2.25;;;;;;;;;;5011946;28;20419;-42
2023/01/09 10:34:01;;;;;;;2.50;2.27;;;;;;;;;;5011977;28;20591;-43
2023/01/09 10:36:34;;;;;;;4.60;2.37;;;;;;;;;;5012309;28;20425;-43
2023/01/09 10:39:03;;;;;;;6.90;2.67;;;;;;;;;;5015814;28;21045;-43
2023/01/09 10:41:28;;;;;;;9.63;4.13;;;;;;;;;;5015299;28;20403;-43
2023/01/09 10:44:04;;;;;;;8.17;2.60;;;;;;;;;;5015250;28;20768;-43
2023/01/09 10:46:50;;;;;;;6.10;3.20;;;;;;;;;;5015221;28;20919;-43
2023/01/09 10:49:18;;;;;;;3.73;2.20;;;;;;;;;;5014798;28;20432;-43
2023/01/09 10:51:50;;;;;;;3.70;2.63;;;;;;;;;;5014979;28;20439;-43
2023/01/09 10:54:18;;;;;;;4.23;1.53;;;;;;;;;;5015420;28;20596;-43
2023/01/09 10:56:47;;;;;;;4.80;2.37;;;;;;;;;;5007529;28;20420;-43
2023/01/09 10:59:13;;;;;;;6.47;2.10;;;;;;;;;;4994857;28;20469;-44
2023/01/09 11:01:39;;;;;;;4.57;1.80;;;;;;;;;;4997142;28;20395;-43
2023/01/09 11:04:16;;;;;;;3.40;2.20;;;;;;;;;;5014109;28;20478;-43
2023/01/09 11:07:04;;;;;;;4.93;1.80;;;;;;;;;;4994754;28;20480;-43
2023/01/09 11:09:49;;;;;;;5.57;3.80;;;;;;;;;;4994590;28;20432;-43
2023/01/09 11:12:25;;;;;;;4.70;2.23;;;;;;;;;;4994569;28;20415;-43
2023/01/09 11:14:51;;;;;;;4.37;1.80;;;;;;;;;;5012565;28;20508;-43
2023/01/09 11:17:24;;;;;;;2.80;1.60;;;;;;;;;;5013569;28;20509;-43
2023/01/09 11:20:01;;;;;;;2.40;2.07;;;;;;;;;;5013944;28;20517;-43
2023/01/09 11:22:27;;;;;;;3.93;1.70;;;;;;;;;;5013630;28;20423;-44
2023/01/09 11:25:00;;;;;;;3.57;1.67;;;;;;;;;;5014302;28;20500;-43
2023/01/09 11:27:26;;;;;;;2.20;2.00;;;;;;;;;;5013578;28;20449;-43
2023/01/09 11:30:09;;;;;;;1.70;1.60;;;;;;;;;;5013838;28;20445;-43
2023/01/09 11:32:36;;;;;;;6.00;2.13;;;;;;;;;;5013599;28;20417;-43
2023/01/09 11:35:06;;;;;;;7.33;1.77;;;;;;;;;;5013625;28;20457;-43
2023/01/09 11:37:32;;;;;;;4.03;1.77;;;;;;;;;;5013090;28;20457;-43
2023/01/09 11:40:00;;;;;;;6.70;1.60;;;;;;;;;;5013591;28;20526;-43
2023/01/09 11:45:14;;;;;;;4.20;1.90;;;;;;;;;;5014682;28;20420;-44
2023/01/09 11:47:40;;;;;;;5.67;1.90;;;;;;;;;;5013786;28;20424;-45
2023/01/09 11:50:20;;;;;;;3.63;1.70;;;;;;;;;;5013920;28;20487;-45
2023/01/09 11:52:46;;;;;;;3.80;1.60;;;;;;;;;;5014065;28;20412;-44
2023/01/09 11:55:15;;;;;;;2.10;1.90;;;;;;;;;;5009399;28;20418;-45
2023/01/09 11:57:41;;;;;;;8.70;1.70;;;;;;;;;;4993868;28;20455;-45
2023/01/09 12:00:27;;;;;;;3.23;1.63;;;;;;;;;;4994299;28;20461;-46
2023/01/09 12:02:56;;;;;;;4.30;1.70;;;;;;;;;;4993927;28;20409;-44
2023/01/09 12:05:41;;;;;;;3.10;1.60;;;;;;;;;;4993030;28;20939;-44
2023/01/09 12:08:07;;;;;;;6.13;1.90;;;;;;;;;;4993516;28;20441;-45
2023/01/09 12:10:54;;;;;;;1.93;1.83;;;;;;;;;;4994154;28;20511;-44
2023/01/09 12:13:35;;;;;;;4.83;1.77;;;;;;;;;;4993212;28;20433;-45
2023/01/09 12:16:07;;;;;;;2.23;1.67;;;;;;;;;;4993899;28;20423;-44
2023/01/09 12:18:33;;;;;;;3.10;2.47;;;;;;;;;;5005587;28;20566;-45
2023/01/09 12:21:10;;;;;;;7.83;1.90;;;;;;;;;;5013321;28;20908;-45
2023/01/09 12:23:54;;;;;;;2.70;1.40;;;;;;;;;;5013513;28;20918;-45
2023/01/09 12:26:23;;;;;;;3.90;1.80;;;;;;;;;;5013387;28;20533;-45
2023/01/09 12:28:59;;;;;;;2.67;2.00;;;;;;;;;;5013044;28;20441;-45
2023/01/09 12:31:44;;;;;;;3.80;1.93;;;;;;;;;;5013351;28;20427;-45
2023/01/09 12:34:29;;;;;;;2.90;1.93;;;;;;;;;;5013352;28;20396;-45
2023/01/09 12:37:15;;;;;;;2.80;1.60;;;;;;;;;;5013675;28;20605;-44
2023/01/09 12:39:50;;;;;;;5.23;2.90;;;;;;;;;;5013447;28;20467;-45
2023/01/09 12:42:19;;;;;;;4.60;2.10;;;;;;;;;;5013291;28;20415;-45
2023/01/09 12:44:50;;;;;;;2.43;2.23;;;;;;;;;;5013046;28;20418;-44
2023/01/09 12:47:29;;;;;;;2.17;2.00;;;;;;;;;;5012732;28;20407;-44
2023/01/09 12:50:15;;;;;;;2.27;1.70;;;;;;;;;;5012670;28;20433;-45
2023/01/09 12:53:00;;;;;;;4.97;2.00;;;;;;;;;;5012785;28;20483;-45
2023/01/09 12:55:27;;;;;;;2.10;2.00;;;;;;;;;;5012929;28;20421;-45
2023/01/09 12:57:57;;;;;;;3.50;2.57;;;;;;;;;;4999264;28;20469;-44
2023/01/09 13:00:26;;;;;;;2.17;1.30;;;;;;;;;;4997226;28;20433;-45
2023/01/09 13:03:00;;;;;;;2.63;2.20;;;;;;;;;;4993958;28;20453;-44
2023/01/09 13:05:35;;;;;;;3.40;1.77;;;;;;;;;;4993118;28;20930;-45
2023/01/09 13:08:03;;;;;;;2.47;1.67;;;;;;;;;;5010765;28;20442;-46
2023/01/09 13:10:32;;;;;;;2.40;2.07;;;;;;;;;;5012740;28;20421;-44
2023/01/09 13:12:59;;;;;;;15.53;2.30;;;;;;;;;;5012512;28;20440;-43
2023/01/09 13:15:25;;;;;;;2.70;1.80;;;;;;;;;;5012577;28;20510;-45
2023/01/09 13:17:56;;;;;;;5.80;1.80;;;;;;;;;;5012103;28;20499;-44
2023/01/09 13:20:24;;;;;;;6.87;2.13;;;;;;;;;;4998663;28;20415;-44
2023/01/09 13:22:51;;;;;;;3.83;1.97;;;;;;;;;;4992847;28;20498;-44
2023/01/09 13:25:23;;;;;;;2.40;1.80;;;;;;;;;;4997221;28;20496;-44
2023/01/09 13:27:56;;;;;;;2.10;2.00;;;;;;;;;;5011877;28;20528;-44
2023/01/09 13:30:25;;;;;;;2.00;1.90;;;;;;;;;;5008493;28;20502;-45
2023/01/09 13:32:56;;;;;;;3.27;1.73;;;;;;;;;;5009228;28;20421;-44
2023/01/09 13:35:22;;;;;;;5.20;2.17;;;;;;;;;;5012325;28;20410;-45
2023/01/09 13:37:50;;;;;;;2.10;1.90;;;;;;;;;;5010658;28;20496;-44
2023/01/09 13:40:19;;;;;;;9.40;1.77;;;;;;;;;;5011863;28;20501;-45
2023/01/09 13:43:15;;;;;;;2.13;1.83;;;;;;;;;;5011445;28;20468;-44
2023/01/09 13:45:41;;;;;;;4.37;2.17;;;;;;;;;;4992012;28;20430;-45
2023/01/09 13:48:16;;;;;;;3.00;2.20;;;;;;;;;;5011003;28;20435;-44
2023/01/09 13:50:43;;;;;;;2.50;1.93;;;;;;;;;;5011058;28;20431;-44
2023/01/09 13:53:17;;;;;;;4.20;1.97;;;;;;;;;;5008557;28;20475;-44
2023/01/09 13:55:59;;;;;;;1.97;1.80;;;;;;;;;;5006780;28;20829;-44
2023/01/09 13:58:25;;;;;;;4.20;2.10;;;;;;;;;;5005578;28;20476;-44
2023/01/09 14:00:52;;;;;;;3.30;2.40;;;;;;;;;;5011749;28;20413;-44
2023/01/09 14:03:25;;;;;;;4.17;2.03;;;;;;;;;;5012051;28;20766;-44
2023/01/09 14:05:51;;;;;;;2.00;1.90;;;;;;;;;;5011841;28;20423;-45
2023/01/09 14:08:17;;;;;;;4.40;2.40;;;;;;;;;;5007836;28;20432;-45
2023/01/09 14:10:43;;;;;;;12.47;2.10;;;;;;;;;;5006682;28;20988;-45
2023/01/09 14:13:21;;;;;;;2.07;1.97;;;;;;;;;;5015308;28;20419;-44
2023/01/09 14:15:48;;;;;;;2.77;2.47;;;;;;;;;;5016013;28;20435;-45
2023/01/09 14:18:16;;;;;;;7.60;2.60;;;;;;;;;;5013665;28;20469;-45
2023/01/09 14:20:44;;;;;;;3.73;1.97;;;;;;;;;;5013617;28;20436;-45
2023/01/09 14:23:36;;;;;;;6.63;2.60;;;;;;;;;;5015574;28;20772;-44
2023/01/09 14:26:02;;;;;;;6.97;3.10;;;;;;;;;;5012179;28;20420;-45
2023/01/09 14:28:29;;;;;;;3.83;2.43;;;;;;;;;;5015276;28;20435;-47
2023/01/09 14:30:58;;;;;;;4.80;2.50;;;;;;;;;;5015367;28;20476;-44
2023/01/09 14:33:26;;;;;;;3.20;2.60;;;;;;;;;;5015078;28;20455;-45
2023/01/09 14:36:01;;;;;;;4.17;2.83;;;;;;;;;;5014616;28;20876;-44
2023/01/09 14:38:35;;;;;;;5.17;2.10;;;;;;;;;;5014522;28;20492;-46
2023/01/09 14:41:10;;;;;;;7.53;2.47;;;;;;;;;;5015296;28;20421;-45
2023/01/09 14:43:45;;;;;;;3.47;2.50;;;;;;;;;;5015410;28;20427;-44
2023/01/09 14:46:14;;;;;;;5.57;2.60;;;;;;;;;;5015095;28;20937;-46
2023/01/09 14:48:42;;;;;;;4.07;2.67;;;;;;;;;;5014761;28;20442;-45
2023/01/09 14:51:14;;;;;;;4.60;2.17;;;;;;;;;;5015354;28;20486;-44
2023/01/09 14:53:41;;;;;;;6.20;2.67;;;;;;;;;;5015328;28;20447;-46
2023/01/09 14:56:22;;;;;;;12.37;2.73;;;;;;;;;;5015086;28;20423;-46
2023/01/09 14:58:51;;;;;;;3.70;2.23;;;;;;;;;;4997763;28;20552;-44
2023/01/09 15:01:21;;;;;;;5.17;2.80;;;;;;;;;;4995276;28;20408;-46
2023/01/09 15:03:52;;;;;;;2.93;2.63;;;;;;;;;;4995418;28;20417;-46
2023/01/09 15:06:19;;;;;;;3.77;2.03;;;;;;;;;;4995308;28;20414;-44
2023/01/09 15:08:46;;;;;;;6.30;2.57;;;;;;;;;;4994944;28;20447;-44
2023/01/09 15:11:13;;;;;;;2.63;2.30;;;;;;;;;;4995319;28;20409;-45